Time;durP1;ratioP1;P1;durP2;ratioP2;P2;SDS_P1;SDS_P2;PMS_P1;PMS_P2;Temp;Humidity;BMP_temperature;BMP_pressure;BME280_temperature;BME280_humidity;BME280_pressure;Samples;Min_cycle;Max_cycle;Signal;HPM_P1;HPM_P2
2021/03/10 00:02:25;;;;;;;30.67;19.53;;;;;;;5.50;88.16;100541.75;649093;221;24840;-79
2021/03/10 00:04:53;;;;;;;34.10;18.97;;;;;;;5.52;88.62;100542.47;636293;225;24869;-79
2021/03/10 00:07:22;;;;;;;34.07;18.90;;;;;;;5.48;88.53;100548.27;637335;225;24882;-78
2021/03/10 00:09:49;;;;;;;28.00;17.33;;;;;;;5.29;88.99;100549.98;648063;220;24823;-79
2021/03/10 00:12:17;;;;;;;35.53;18.70;;;;;;;5.30;89.80;100550.81;637472;225;25012;-79
2021/03/10 00:14:45;;;;;;;32.23;19.37;;;;;;;5.33;89.64;100554.47;637798;223;24971;-79
2021/03/10 00:17:13;;;;;;;35.77;18.90;;;;;;;5.26;89.58;100551.95;635638;225;24877;-78
2021/03/10 00:19:41;;;;;;;36.23;19.53;;;;;;;5.34;89.57;100553.54;638023;225;25032;-79
2021/03/10 00:22:09;;;;;;;34.17;20.50;;;;;;;5.32;89.83;100559.27;644550;220;24819;-79
2021/03/10 00:24:37;;;;;;;36.13;20.17;;;;;;;5.36;89.83;100562.84;648115;221;26986;-79
2021/03/10 00:27:05;;;;;;;34.10;20.67;;;;;;;5.24;90.13;100557.69;636662;225;24864;-79
2021/03/10 00:29:33;;;;;;;37.47;20.90;;;;;;;5.22;90.17;100566.81;633916;225;25087;-79
2021/03/10 00:32:01;;;;;;;33.93;20.43;;;;;;;5.22;90.05;100565.52;637010;225;24864;-78
2021/03/10 00:34:29;;;;;;;34.93;19.10;;;;;;;5.29;90.43;100565.46;633432;225;24946;-79
2021/03/10 00:36:56;;;;;;;35.13;20.03;;;;;;;5.39;90.46;100573.88;635477;226;25204;-79
2021/03/10 00:39:24;;;;;;;36.57;20.90;;;;;;;5.37;90.61;100564.96;649828;220;24802;-79
2021/03/10 00:41:52;;;;;;;40.33;20.60;;;;;;;5.35;89.83;100561.66;641201;223;24870;-78
2021/03/10 00:44:20;;;;;;;36.70;21.43;;;;;;;5.28;89.84;100562.52;639402;221;24841;-79
2021/03/10 00:46:49;;;;;;;36.43;20.27;;;;;;;5.20;91.29;100575.55;630049;225;27111;-78
2021/03/10 00:49:17;;;;;;;36.55;23.73;;;;;;;5.13;91.33;100583.34;643192;220;32469;-78
2021/03/10 00:51:46;;;;;;;34.10;21.40;;;;;;;5.08;91.88;100584.95;649975;218;24134;-79
2021/03/10 00:54:14;;;;;;;38.40;20.10;;;;;;;5.28;90.61;100583.15;632715;225;24924;-78
2021/03/10 00:56:41;;;;;;;34.70;20.07;;;;;;;5.54;89.64;100583.16;634946;225;24942;-82
2021/03/10 00:59:10;;;;;;;39.20;23.23;;;;;;;5.61;89.43;100576.17;636140;224;24974;-79
2021/03/10 01:01:38;;;;;;;37.97;22.63;;;;;;;5.73;88.77;100573.23;641771;221;26999;-78
2021/03/10 01:04:06;;;;;;;39.13;21.67;;;;;;;5.81;87.79;100568.84;628276;226;24897;-76
2021/03/10 01:06:34;;;;;;;34.93;21.43;;;;;;;5.89;88.02;100568.66;648549;221;25926;-75
2021/03/10 01:09:02;;;;;;;46.17;22.90;;;;;;;6.04;87.49;100569.37;644970;221;24833;-76
2021/03/10 01:11:30;;;;;;;37.40;21.50;;;;;;;6.07;86.32;100556.28;637211;224;24858;-76
2021/03/10 01:13:58;;;;;;;38.63;22.30;;;;;;;6.19;86.67;100562.31;641487;222;24862;-76
2021/03/10 01:16:26;;;;;;;35.40;21.20;;;;;;;6.12;86.29;100561.11;640335;221;24875;-77
2021/03/10 01:18:54;;;;;;;37.17;22.30;;;;;;;6.06;86.92;100568.00;637187;221;24854;-78
2021/03/10 01:21:23;;;;;;;35.60;21.43;;;;;;;6.29;85.69;100568.95;639591;221;24880;-78
2021/03/10 01:23:51;;;;;;;43.37;23.27;;;;;;;6.25;85.83;100562.72;639792;221;24908;-76
2021/03/10 01:26:19;;;;;;;40.25;25.97;;;;;;;6.63;84.73;100550.11;631117;225;32722;-79
2021/03/10 01:28:47;;;;;;;39.17;22.83;;;;;;;6.28;85.22;100543.59;650103;218;23771;-76
2021/03/10 01:31:15;;;;;;;37.40;23.00;;;;;;;6.43;85.35;100550.70;636030;221;30242;-76
2021/03/10 01:33:43;;;;;;;35.53;21.43;;;;;;;6.33;85.50;100550.53;641411;221;24869;-76
2021/03/10 01:36:11;;;;;;;36.83;21.73;;;;;;;6.29;85.65;100549.58;632672;225;24956;-76
2021/03/10 01:38:39;;;;;;;36.10;21.77;;;;;;;6.29;85.80;100546.99;630806;225;26148;-76
2021/03/10 01:41:07;;;;;;;42.07;26.30;;;;;;;6.93;83.59;100536.69;638821;221;32538;-77
2021/03/10 01:43:35;;;;;;;38.43;23.60;;;;;;;6.43;84.95;100531.33;635958;225;24941;-76
2021/03/10 01:46:03;;;;;;;35.60;21.73;;;;;;;6.51;85.32;100538.08;649971;220;24844;-76
2021/03/10 01:48:30;;;;;;;41.20;23.17;;;;;;;6.48;85.40;100532.66;637704;225;24897;-77
2021/03/10 01:50:58;;;;;;;40.37;22.07;;;;;;;6.39;85.71;100533.31;635948;221;24951;-76
2021/03/10 01:53:27;;;;;;;38.27;22.30;;;;;;;6.29;86.24;100537.48;640035;221;27036;-76
2021/03/10 01:55:55;;;;;;;39.30;23.30;;;;;;;6.34;85.59;100530.25;632862;226;24877;-76
2021/03/10 01:58:23;;;;;;;39.03;23.27;;;;;;;6.20;86.02;100527.83;636544;225;24933;-76
2021/03/10 02:00:51;;;;;;;36.60;23.10;;;;;;;5.86;87.70;100534.50;641044;223;24886;-77
2021/03/10 02:03:19;;;;;;;41.20;23.47;;;;;;;5.81;88.14;100540.45;638553;223;24903;-79
2021/03/10 02:05:47;;;;;;;44.27;23.87;;;;;;;5.73;88.27;100535.81;634506;225;24975;-79
2021/03/10 02:08:33;;;;;;;41.13;22.90;;;;;;;5.74;88.55;100534.88;639363;224;24865;-75
2021/03/10 02:11:08;;;;;;;36.77;21.90;;;;;;;5.61;88.67;100522.00;650658;220;31456;-76
2021/03/10 02:13:39;;;;;;;41.93;23.30;;;;;;;5.74;88.62;100521.98;635529;224;24876;-77
2021/03/10 02:16:08;;;;;;;42.03;22.40;;;;;;;5.79;87.88;100528.13;629814;225;24867;-77
2021/03/10 02:18:36;;;;;;;37.87;22.40;;;;;;;5.31;89.58;100549.88;648480;220;24860;-77
2021/03/10 02:21:04;;;;;;;38.77;22.60;;;;;;;5.52;89.77;100560.52;637880;225;24876;-76
2021/03/10 02:23:39;;;;;;;40.37;23.63;;;;;;;5.50;88.88;100560.62;636151;225;24877;-78
2021/03/10 02:26:16;;;;;;;36.67;22.30;;;;;;;5.25;90.64;100565.31;636514;223;24879;-79
2021/03/10 02:28:47;;;;;;;44.13;24.57;;;;;;;5.25;90.80;100562.73;648104;221;24811;-79
2021/03/10 02:31:15;;;;;;;35.80;23.03;;;;;;;5.30;90.39;100559.37;645299;221;24884;-79
2021/03/10 02:33:43;;;;;;;38.97;22.23;;;;;;;5.51;89.66;100556.30;637010;225;27047;-79
2021/03/10 02:36:11;;;;;;;39.30;22.40;;;;;;;5.52;89.86;100562.63;647131;221;24818;-78
2021/03/10 02:38:40;;;;;;;41.03;23.90;;;;;;;5.48;89.30;100565.03;636269;219;24856;-79
2021/03/10 02:41:08;;;;;;;42.20;22.13;;;;;;;5.42;89.60;100560.77;638784;224;24845;-80
2021/03/10 02:43:36;;;;;;;38.50;23.10;;;;;;;5.60;89.13;100563.38;641942;221;24886;-79
2021/03/10 02:46:05;;;;;;;41.10;23.93;;;;;;;5.65;88.88;100563.91;644402;221;24917;-79
2021/03/10 02:48:32;;;;;;;42.70;27.33;;;;;;;6.05;86.98;100563.28;634852;221;32628;-76
2021/03/10 02:51:00;;;;;;;40.53;27.20;;;;;;;6.19;86.07;100563.16;630628;225;33430;-77
2021/03/10 02:53:28;;;;;;;43.23;27.93;;;;;;;6.17;85.94;100559.02;643215;221;32432;-77
2021/03/10 02:55:56;;;;;;;43.70;24.73;;;;;;;5.68;88.32;100564.98;639159;224;23781;-75
2021/03/10 02:58:24;;;;;;;40.97;24.20;;;;;;;5.70;87.63;100565.70;649735;220;24807;-77
2021/03/10 03:00:52;;;;;;;42.67;24.70;;;;;;;5.70;88.24;100573.45;649357;221;24828;-78
2021/03/10 03:03:20;;;;;;;37.20;22.13;;;;;;;5.67;88.40;100571.08;638219;225;24862;-78
2021/03/10 03:05:49;;;;;;;45.70;25.07;;;;;;;5.53;88.52;100562.99;638036;222;24853;-76
2021/03/10 03:08:17;;;;;;;41.93;23.80;;;;;;;5.61;88.73;100559.41;640332;221;24889;-77
2021/03/10 03:10:44;;;;;;;42.07;25.23;;;;;;;5.58;88.77;100557.51;642898;221;24927;-75
2021/03/10 03:13:12;;;;;;;41.97;25.30;;;;;;;5.18;90.31;100571.79;644479;220;25014;-76
2021/03/10 03:15:41;;;;;;;48.48;28.25;;;;;;;5.32;89.87;100577.31;640119;221;32755;-79
2021/03/10 03:18:08;;;;;;;42.17;26.30;;;;;;;5.08;91.43;100584.12;639923;221;23824;-78
2021/03/10 03:20:36;;;;;;;42.83;25.27;;;;;;;4.97;91.98;100584.81;630556;225;26182;-79
2021/03/10 03:23:04;;;;;;;45.70;24.90;;;;;;;4.99;92.52;100586.83;635151;225;24901;-78
2021/03/10 03:25:33;;;;;;;48.40;25.63;;;;;;;5.03;92.22;100591.67;637112;225;24930;-79
2021/03/10 03:28:01;;;;;;;46.40;23.47;;;;;;;5.15;92.89;100585.35;635081;225;24990;-82
2021/03/10 03:30:30;;;;;;;40.87;23.80;;;;;;;5.20;91.81;100579.42;650084;220;24827;-78
2021/03/10 03:32:58;;;;;;;43.77;22.13;;;;;;;5.30;91.16;100586.91;635788;224;24852;-82
2021/03/10 03:35:25;;;;;;;43.17;24.63;;;;;;;5.11;91.74;100578.30;648241;219;24881;-80
2021/03/10 03:37:53;;;;;;;41.80;24.57;;;;;;;5.24;91.89;100580.42;649744;218;25097;-78
2021/03/10 03:40:21;;;;;;;48.37;24.63;;;;;;;5.31;91.47;100572.63;636189;225;24905;-78
2021/03/10 03:42:49;;;;;;;46.00;25.27;;;;;;;5.44;91.31;100570.52;636288;225;24864;-79
2021/03/10 03:45:17;;;;;;;46.93;25.70;;;;;;;5.43;90.94;100577.43;637931;225;26007;-79
2021/03/10 03:47:50;;;;;;;42.07;24.13;;;;;;;5.50;90.48;100572.70;644139;221;24864;-78
2021/03/10 03:50:18;;;;;;;43.13;24.20;;;;;;;5.36;89.94;100580.90;647566;220;28040;-80
2021/03/10 03:52:46;;;;;;;45.00;25.57;;;;;;;5.46;90.90;100578.50;636037;225;26003;-79
2021/03/10 03:55:14;;;;;;;50.03;26.17;;;;;;;5.61;89.65;100577.47;635201;225;24887;-76
2021/03/10 03:57:42;;;;;;;41.67;24.13;;;;;;;5.52;90.25;100583.27;633323;225;24878;-77
2021/03/10 04:00:15;;;;;;;39.07;23.20;;;;;;;5.35;89.82;100581.00;645769;221;24792;-76
2021/03/10 04:02:42;;;;;;;41.23;24.50;;;;;;;5.31;90.97;100581.65;647327;221;24834;-81
2021/03/10 04:05:12;;;;;;;40.67;27.30;;;;;;;5.88;89.27;100574.75;642016;221;32443;-77
2021/03/10 04:07:48;;;;;;;40.13;24.90;;;;;;;5.73;89.41;100573.23;636320;225;24835;-76
2021/03/10 04:10:16;;;;;;;40.00;23.70;;;;;;;5.66;88.80;100569.44;644330;220;24802;-76
2021/03/10 04:12:45;;;;;;;47.60;29.30;;;;;;;5.98;87.79;100568.99;644765;220;32472;-77
2021/03/10 04:15:13;;;;;;;49.03;28.77;;;;;;;5.79;88.51;100580.56;648892;221;24844;-77
2021/03/10 04:17:41;;;;;;;44.00;26.57;;;;;;;5.71;88.96;100580.25;648128;221;24848;-76
2021/03/10 04:20:11;;;;;;;46.27;25.07;;;;;;;5.59;88.97;100579.80;634411;224;24831;-78
2021/03/10 04:22:39;;;;;;;45.90;25.67;;;;;;;5.64;88.99;100585.48;647384;221;24847;-76
2021/03/10 04:25:10;;;;;;;42.87;25.77;;;;;;;5.62;88.54;100586.03;633180;224;24873;-80
2021/03/10 04:27:38;;;;;;;39.17;23.73;;;;;;;5.63;88.91;100592.84;648705;221;24852;-78
2021/03/10 04:30:07;;;;;;;45.67;26.17;;;;;;;5.63;88.56;100599.29;633892;225;24940;-79
2021/03/10 04:32:35;;;;;;;39.80;24.20;;;;;;;5.65;89.29;100598.75;634689;225;24915;-76
2021/03/10 04:35:03;;;;;;;42.67;23.80;;;;;;;5.58;88.95;100600.91;633709;225;27040;-80
2021/03/10 04:37:32;;;;;;;41.77;24.73;;;;;;;5.55;89.08;100606.73;647894;220;26955;-78
2021/03/10 04:40:00;;;;;;;48.30;25.67;;;;;;;5.48;89.60;100614.05;641495;221;24849;-78
2021/03/10 04:42:28;;;;;;;43.97;24.27;;;;;;;5.35;90.71;100615.36;636999;225;24992;-78
2021/03/10 04:44:56;;;;;;;46.60;29.30;;;;;;;5.70;89.58;100604.41;639567;221;32540;-79
2021/03/10 04:47:26;;;;;;;44.87;26.27;;;;;;;5.36;90.82;100614.42;637970;225;24879;-79
2021/03/10 04:49:53;;;;;;;43.00;24.97;;;;;;;5.16;91.60;100614.90;636107;225;29137;-78
2021/03/10 04:52:21;;;;;;;41.60;23.43;;;;;;;5.32;91.69;100618.11;634073;225;27027;-78
2021/03/10 04:54:53;;;;;;;46.30;23.83;;;;;;;5.28;91.30;100623.58;637727;225;24860;-78
2021/03/10 04:57:20;;;;;;;39.17;23.67;;;;;;;5.30;91.34;100625.59;636573;225;24884;-79
2021/03/10 04:59:48;;;;;;;37.87;21.40;;;;;;;5.30;91.07;100618.69;632726;225;24897;-78
2021/03/10 05:02:18;;;;;;;42.50;25.30;;;;;;;5.47;90.72;100620.59;637168;225;25152;-78
2021/03/10 05:04:46;;;;;;;44.42;27.82;;;;;;;5.92;89.21;100610.27;642347;220;32460;-80
2021/03/10 05:07:14;;;;;;;45.70;26.00;;;;;;;5.46;90.58;100622.36;638931;224;24133;-78
2021/03/10 05:09:42;;;;;;;42.83;27.60;;;;;;;5.97;88.46;100615.10;642070;220;33453;-78
2021/03/10 05:12:10;;;;;;;43.70;25.47;;;;;;;5.54;89.71;100623.15;648232;220;23702;-78
2021/03/10 05:14:38;;;;;;;44.87;26.30;;;;;;;5.56;89.77;100626.45;650680;220;24832;-77
2021/03/10 05:17:06;;;;;;;44.13;25.87;;;;;;;5.49;90.88;100622.17;636009;224;24847;-78
2021/03/10 05:19:34;;;;;;;43.00;24.47;;;;;;;5.60;89.54;100621.44;647892;220;24812;-78
2021/03/10 05:22:02;;;;;;;40.73;23.53;;;;;;;5.35;90.40;100624.38;645391;220;26128;-78
2021/03/10 05:24:30;;;;;;;46.43;27.70;;;;;;;5.79;89.97;100619.28;632512;225;32610;-78
2021/03/10 05:26:58;;;;;;;44.37;29.13;;;;;;;5.71;89.50;100617.67;638243;221;32511;-78
2021/03/10 05:29:26;;;;;;;40.67;25.37;;;;;;;5.46;90.70;100633.97;634968;226;25036;-78
2021/03/10 05:31:54;;;;;;;43.60;26.47;;;;;;;5.42;91.46;100635.10;638367;224;24868;-78
2021/03/10 05:34:21;;;;;;;41.80;25.20;;;;;;;5.54;91.29;100636.05;649970;220;24823;-78
2021/03/10 05:36:50;;;;;;;41.83;25.43;;;;;;;5.47;91.27;100637.37;648999;220;24829;-78
2021/03/10 05:39:18;;;;;;;42.10;23.93;;;;;;;5.43;90.59;100638.51;650824;221;24811;-78
2021/03/10 05:41:47;;;;;;;40.73;23.50;;;;;;;5.36;90.55;100633.77;636081;225;25071;-78
2021/03/10 05:44:14;;;;;;;43.23;23.43;;;;;;;5.47;91.21;100635.61;638283;225;26048;-78
2021/03/10 05:46:42;;;;;;;41.97;23.50;;;;;;;5.35;91.10;100635.16;643537;220;26023;-77
2021/03/10 05:49:10;;;;;;;48.80;24.10;;;;;;;5.45;90.92;100628.45;641805;221;24856;-77
2021/03/10 05:51:38;;;;;;;38.97;22.73;;;;;;;5.50;90.61;100627.70;649681;220;24816;-78
2021/03/10 05:54:06;;;;;;;39.83;23.90;;;;;;;5.43;91.25;100633.34;636769;225;24848;-78
2021/03/10 05:56:34;;;;;;;45.50;24.43;;;;;;;5.41;91.09;100637.78;636207;225;24881;-77
2021/03/10 05:59:02;;;;;;;40.30;23.60;;;;;;;5.36;91.48;100647.13;635495;225;24903;-78
2021/03/10 06:01:31;;;;;;;43.67;25.60;;;;;;;5.40;92.06;100649.86;645435;221;24838;-79
2021/03/10 06:03:59;;;;;;;45.50;25.30;;;;;;;5.32;92.16;100649.52;649983;220;24789;-78
2021/03/10 06:06:27;;;;;;;45.53;26.13;;;;;;;5.43;92.22;100657.39;652355;220;24840;-78
2021/03/10 06:08:54;;;;;;;43.50;26.00;;;;;;;5.42;91.10;100648.00;637562;224;24862;-80
2021/03/10 06:11:23;;;;;;;44.83;25.20;;;;;;;5.42;91.70;100650.58;633642;226;24895;-78
2021/03/10 06:13:51;;;;;;;43.53;24.90;;;;;;;5.43;92.92;100650.11;635675;225;24858;-78
2021/03/10 06:16:21;;;;;;;42.80;25.43;;;;;;;5.54;91.84;100655.39;640369;222;24891;-77
2021/03/10 06:18:50;;;;;;;45.83;24.60;;;;;;;5.40;92.14;100648.57;646849;220;24810;-78
2021/03/10 06:21:17;;;;;;;40.53;24.07;;;;;;;5.54;91.44;100645.91;633170;224;24942;-79
2021/03/10 06:23:52;;;;;;;41.07;24.80;;;;;;;5.46;92.21;100655.06;634759;225;24889;-78
2021/03/10 06:26:20;;;;;;;41.60;23.00;;;;;;;5.57;91.53;100651.31;632187;225;29122;-78
2021/03/10 06:28:48;;;;;;;41.77;24.40;;;;;;;5.56;91.60;100650.95;632847;225;25246;-79
2021/03/10 06:31:21;;;;;;;46.48;28.70;;;;;;;6.13;89.67;100646.67;628821;225;32765;-78
2021/03/10 06:34:05;;;;;;;44.90;27.17;;;;;;;5.86;90.38;100644.19;649255;220;23725;-80
2021/03/10 06:36:33;;;;;;;43.70;25.50;;;;;;;5.80;90.78;100657.06;632298;224;24962;-79
2021/03/10 06:39:01;;;;;;;45.85;29.87;;;;;;;6.40;88.51;100643.46;630009;225;32841;-78
2021/03/10 06:41:31;;;;;;;46.00;27.20;;;;;;;5.97;90.21;100651.24;643764;220;23757;-78
2021/03/10 06:44:00;;;;;;;50.33;29.67;;;;;;;6.54;88.55;100638.14;638953;221;32762;-76
2021/03/10 06:46:28;;;;;;;48.52;32.00;;;;;;;6.59;87.99;100648.14;627065;226;32787;-75
2021/03/10 06:48:56;;;;;;;49.97;29.40;;;;;;;6.45;87.76;100653.47;625745;224;33306;-76
2021/03/10 06:51:25;;;;;;;46.90;30.25;;;;;;;6.42;88.00;100654.98;641247;220;32476;-79
2021/03/10 06:53:53;;;;;;;45.87;29.57;;;;;;;6.48;87.44;100657.15;628336;224;33239;-79
2021/03/10 06:56:23;;;;;;;50.40;31.77;;;;;;;6.54;87.08;100657.52;628627;223;43624;-78
2021/03/10 06:58:58;;;;;;;45.23;28.13;;;;;;;5.92;90.26;100684.66;635230;225;24903;-78
2021/03/10 07:01:27;;;;;;;44.57;26.97;;;;;;;5.61;91.69;100691.45;646538;221;29095;-78
2021/03/10 07:03:56;;;;;;;49.07;26.40;;;;;;;5.73;92.00;100702.25;648769;221;24778;-78
2021/03/10 07:06:24;;;;;;;44.17;26.00;;;;;;;5.73;92.12;100706.12;645254;221;28000;-79
2021/03/10 07:08:52;;;;;;;42.30;26.37;;;;;;;5.87;91.89;100707.32;645271;221;24845;-78
2021/03/10 07:11:20;;;;;;;51.87;27.97;;;;;;;5.75;91.87;100709.89;635322;223;24958;-81
2021/03/10 07:13:48;;;;;;;43.70;26.07;;;;;;;6.06;91.62;100712.13;646505;221;25869;-78
2021/03/10 07:16:16;;;;;;;43.97;24.30;;;;;;;6.05;91.05;100708.33;633602;225;25254;-78
2021/03/10 07:18:46;;;;;;;45.10;26.87;;;;;;;6.03;91.17;100707.61;645775;221;24836;-77
2021/03/10 07:21:12;;;;;;;45.53;27.23;;;;;;;6.21;90.34;100714.13;635474;225;24925;-78
2021/03/10 07:23:43;;;;;;;48.23;27.80;;;;;;;6.31;90.31;100712.55;635202;225;24874;-76
2021/03/10 07:26:12;;;;;;;44.90;26.57;;;;;;;6.31;89.87;100707.84;647464;219;24839;-76
2021/03/10 07:28:40;;;;;;;41.67;25.23;;;;;;;6.37;89.77;100709.55;637646;225;24926;-76
2021/03/10 07:31:17;;;;;;;46.17;26.50;;;;;;;6.50;89.58;100721.98;635485;225;24945;-76
2021/03/10 07:33:50;;;;;;;49.57;29.87;;;;;;;6.24;90.01;100729.41;642021;220;25079;-78
2021/03/10 07:36:19;;;;;;;44.60;26.30;;;;;;;6.37;90.60;100739.27;641127;221;29137;-76
2021/03/10 07:38:47;;;;;;;43.70;26.70;;;;;;;6.52;89.82;100731.74;639310;221;24923;-79
2021/03/10 07:41:15;;;;;;;49.03;26.20;;;;;;;6.52;89.58;100723.17;643970;221;25110;-81
2021/03/10 07:43:43;;;;;;;48.13;29.95;;;;;;;6.75;88.05;100728.00;642851;221;32589;-78
2021/03/10 07:46:20;;;;;;;46.40;30.88;;;;;;;7.12;87.30;100721.87;630451;225;43418;-77
2021/03/10 07:48:48;;;;;;;48.93;29.00;;;;;;;6.80;88.92;100724.18;636173;225;23804;-78
2021/03/10 07:51:27;;;;;;;51.07;27.80;;;;;;;7.27;87.11;100716.53;637861;219;27010;-78
2021/03/10 07:53:55;;;;;;;44.00;27.83;;;;;;;7.26;86.44;100714.88;647337;221;25086;-78
2021/03/10 07:56:27;;;;;;;45.73;26.37;;;;;;;7.09;87.89;100715.64;633104;225;24919;-78
2021/03/10 07:58:54;;;;;;;44.73;27.00;;;;;;;6.93;88.18;100716.38;646280;221;24870;-78
2021/03/10 08:01:22;;;;;;;45.37;28.13;;;;;;;7.15;87.99;100720.36;635227;224;24891;-79
2021/03/10 08:03:50;;;;;;;51.40;27.93;;;;;;;7.49;86.42;100712.74;627560;225;24947;-78
2021/03/10 08:06:18;;;;;;;46.50;27.47;;;;;;;7.48;86.41;100705.92;645384;221;24933;-79
2021/03/10 08:08:46;;;;;;;40.80;25.57;;;;;;;7.57;85.96;100708.28;646910;221;24859;-77
2021/03/10 08:11:14;;;;;;;44.20;26.43;;;;;;;7.80;85.76;100700.93;648487;221;24874;-76
2021/03/10 08:13:42;;;;;;;43.97;26.90;;;;;;;8.08;84.82;100701.44;633238;225;24920;-76
2021/03/10 08:16:10;;;;;;;44.37;26.87;;;;;;;8.43;84.43;100707.80;633233;225;24947;-76
2021/03/10 08:18:39;;;;;;;51.27;27.87;;;;;;;8.24;83.54;100698.84;636786;225;24854;-78
2021/03/10 08:21:08;;;;;;;44.40;27.30;;;;;;;8.15;82.69;100702.13;646664;221;24869;-76
2021/03/10 08:23:37;;;;;;;45.67;24.87;;;;;;;8.25;82.77;100706.14;649017;221;25129;-79
2021/03/10 08:26:07;;;;;;;40.77;25.93;;;;;;;7.67;84.45;100715.26;637198;225;24872;-76
2021/03/10 08:28:34;;;;;;;47.40;27.20;;;;;;;7.49;85.88;100729.56;646596;221;24833;-76
2021/03/10 08:31:02;;;;;;;44.30;26.20;;;;;;;7.27;86.90;100738.05;644898;221;24864;-78
2021/03/10 08:33:30;;;;;;;48.90;29.30;;;;;;;7.39;87.42;100745.40;652301;218;24805;-80
2021/03/10 08:35:58;;;;;;;49.53;27.30;;;;;;;7.31;87.09;100733.47;634654;224;24865;-77
2021/03/10 08:38:32;;;;;;;46.67;29.20;;;;;;;6.95;89.11;100740.84;634814;225;24934;-78
2021/03/10 08:41:04;;;;;;;42.50;26.00;;;;;;;7.07;88.45;100744.67;632159;225;24898;-78
2021/03/10 08:43:32;;;;;;;46.80;27.93;;;;;;;7.00;89.55;100746.50;634348;225;24863;-77
2021/03/10 08:46:00;;;;;;;46.60;27.83;;;;;;;6.98;89.35;100741.91;635384;225;24937;-79
2021/03/10 08:48:33;;;;;;;50.13;28.40;;;;;;;7.02;90.19;100742.86;635776;224;24880;-77
2021/03/10 08:51:01;;;;;;;47.10;28.87;;;;;;;7.47;89.15;100740.97;637816;223;24912;-77
2021/03/10 08:53:29;;;;;;;47.57;28.70;;;;;;;7.77;87.67;100736.59;623176;225;24955;-78
2021/03/10 08:56:05;;;;;;;47.10;27.77;;;;;;;7.53;87.37;100732.75;629619;225;24946;-79
2021/03/10 08:58:33;;;;;;;45.03;27.63;;;;;;;7.68;86.83;100729.84;632563;225;24913;-78
2021/03/10 09:01:01;;;;;;;51.13;28.90;;;;;;;8.07;87.34;100721.80;635090;225;25944;-80
2021/03/10 09:03:29;;;;;;;49.13;28.40;;;;;;;7.87;85.99;100714.23;635935;225;24895;-79
2021/03/10 09:06:00;;;;;;;47.70;27.70;;;;;;;7.69;86.80;100727.61;645105;221;24852;-77
2021/03/10 09:08:27;;;;;;;49.60;28.77;;;;;;;8.05;86.61;100732.28;635370;225;24865;-77
2021/03/10 09:10:55;;;;;;;46.03;27.70;;;;;;;7.82;86.92;100733.18;646759;219;25114;-78
2021/03/10 09:13:23;;;;;;;46.83;27.27;;;;;;;8.35;85.07;100727.03;638992;224;24874;-77
2021/03/10 09:15:51;;;;;;;44.20;26.97;;;;;;;7.99;85.83;100724.96;649836;220;24841;-77
2021/03/10 09:18:19;;;;;;;47.63;28.10;;;;;;;8.35;85.79;100723.97;646497;221;24838;-76
2021/03/10 09:20:47;;;;;;;44.70;27.40;;;;;;;8.31;85.00;100714.28;636728;225;24942;-76
2021/03/10 09:23:24;;;;;;;42.77;27.33;;;;;;;8.28;84.08;100716.27;633262;225;24875;-76
2021/03/10 09:25:54;;;;;;;46.47;27.70;;;;;;;8.27;84.69;100714.62;634168;225;24901;-77
2021/03/10 09:28:22;;;;;;;50.70;27.67;;;;;;;8.60;82.86;100696.97;647184;220;25116;-76
2021/03/10 09:30:50;;;;;;;42.73;26.07;;;;;;;8.17;83.48;100697.67;636766;225;24859;-76
2021/03/10 09:33:18;;;;;;;48.70;26.93;;;;;;;8.37;84.08;100691.45;637573;223;25473;-77
2021/03/10 09:35:52;;;;;;;44.42;29.92;;;;;;;8.89;81.56;100684.29;641974;220;32442;-79
2021/03/10 09:38:20;;;;;;;45.37;28.53;;;;;;;9.20;81.19;100683.94;647490;221;23724;-78
2021/03/10 09:40:50;;;;;;;41.63;26.90;;;;;;;9.04;80.23;100678.34;637571;224;24943;-75
2021/03/10 09:43:18;;;;;;;44.27;26.67;;;;;;;9.24;79.55;100678.84;649601;220;24780;-76
2021/03/10 09:45:48;;;;;;;43.30;25.67;;;;;;;9.90;79.30;100666.41;637182;225;24889;-76
2021/03/10 09:48:18;;;;;;;40.97;26.10;;;;;;;10.19;75.36;100654.02;635549;225;29224;-76
2021/03/10 09:50:45;;;;;;;39.47;26.03;;;;;;;10.33;76.41;100659.70;644486;221;24896;-78
2021/03/10 09:53:13;;;;;;;37.00;24.60;;;;;;;11.00;73.96;100647.28;632521;225;24893;-75
2021/03/10 09:55:42;;;;;;;44.37;26.53;;;;;;;10.29;75.30;100647.11;634283;224;25049;-75
2021/03/10 09:58:10;;;;;;;46.43;26.50;;;;;;;10.43;76.56;100657.14;642710;221;27040;-75
2021/03/10 10:00:38;;;;;;;42.67;26.73;;;;;;;10.33;74.87;100654.98;636190;223;24887;-76
2021/03/10 10:03:06;;;;;;;39.37;25.73;;;;;;;10.30;76.13;100656.55;637062;225;24885;-76
2021/03/10 10:05:34;;;;;;;42.93;27.30;;;;;;;10.61;75.55;100652.92;636668;225;27055;-76
2021/03/10 10:08:02;;;;;;;40.87;25.97;;;;;;;10.30;75.20;100644.37;635234;225;24961;-77
2021/03/10 10:10:31;;;;;;;35.87;23.13;;;;;;;10.51;72.92;100644.75;632646;225;32372;-76
2021/03/10 10:12:59;;;;;;;37.50;24.30;;;;;;;10.58;73.07;100637.59;646676;221;31517;-76
2021/03/10 10:15:29;;;;;;;34.80;23.87;;;;;;;10.32;74.24;100635.14;636934;225;24838;-76
2021/03/10 10:17:55;;;;;;;34.33;22.70;;;;;;;10.07;72.46;100628.11;649784;220;24826;-76
2021/03/10 10:20:23;;;;;;;32.17;20.93;;;;;;;10.24;73.13;100632.36;646811;220;24874;-76
2021/03/10 10:22:51;;;;;;;34.57;22.60;;;;;;;10.23;72.06;100632.84;648376;219;24833;-76
2021/03/10 10:25:18;;;;;;;33.07;22.07;;;;;;;10.71;72.64;100632.13;636276;224;27045;-76
2021/03/10 10:27:46;;;;;;;35.83;21.53;;;;;;;11.29;70.88;100632.94;637702;225;24923;-77
2021/03/10 10:30:15;;;;;;;31.63;21.17;;;;;;;11.48;69.34;100620.34;633362;225;28051;-76
2021/03/10 10:32:44;;;;;;;31.40;20.57;;;;;;;11.84;68.63;100610.95;650721;220;23849;-77
2021/03/10 10:35:14;;;;;;;29.57;21.40;;;;;;;12.16;67.02;100606.61;644364;220;32748;-77
2021/03/10 10:37:42;;;;;;;26.17;18.40;;;;;;;11.69;65.30;100600.63;646809;220;23729;-77
2021/03/10 10:40:12;;;;;;;19.80;13.30;;;;;;;10.94;64.43;100580.63;636527;225;24863;-77
2021/03/10 10:42:41;;;;;;;22.43;14.73;;;;;;;11.56;64.39;100581.40;647075;221;24845;-77
2021/03/10 10:45:10;;;;;;;21.77;15.07;;;;;;;11.31;63.56;100583.32;627633;225;32650;-77
2021/03/10 10:47:38;;;;;;;25.52;16.45;;;;;;;11.44;63.06;100577.33;631371;223;43338;-76
2021/03/10 10:50:07;;;;;;;15.80;11.40;;;;;;;10.42;63.57;100566.27;648657;221;23027;-76
2021/03/10 10:52:35;;;;;;;17.77;13.37;;;;;;;10.33;63.67;100564.80;644019;220;32643;-78
2021/03/10 10:55:03;;;;;;;18.23;11.90;;;;;;;10.65;63.48;100563.73;633330;225;28244;-77
2021/03/10 10:57:31;;;;;;;24.43;15.13;;;;;;;11.16;64.47;100564.72;649054;220;25063;-76
2021/03/10 11:00:00;;;;;;;23.53;14.97;;;;;;;11.11;64.60;100564.30;650349;220;24815;-76
2021/03/10 11:02:29;;;;;;;20.87;14.50;;;;;;;10.88;64.00;100557.77;635885;222;23900;-77
2021/03/10 11:04:57;;;;;;;19.80;13.63;;;;;;;11.08;62.76;100555.95;635223;225;24898;-78
2021/03/10 11:07:25;;;;;;;20.07;13.30;;;;;;;11.52;63.73;100559.67;635512;224;24861;-76
2021/03/10 11:09:54;;;;;;;21.37;13.63;;;;;;;11.39;62.54;100558.67;637044;224;25192;-76
2021/03/10 11:12:22;;;;;;;20.33;14.10;;;;;;;11.34;62.62;100553.56;635191;221;32773;-76
2021/03/10 11:14:50;;;;;;;21.60;13.00;;;;;;;11.39;62.38;100555.25;638822;221;25946;-77
2021/03/10 11:17:19;;;;;;;24.07;14.00;;;;;;;11.45;61.86;100552.92;632507;225;24966;-76
2021/03/10 11:19:48;;;;;;;19.83;13.47;;;;;;;11.70;61.84;100546.73;646379;221;24913;-77
2021/03/10 11:22:17;;;;;;;28.63;15.47;;;;;;;11.49;61.97;100550.84;635399;225;24870;-76
2021/03/10 11:24:46;;;;;;;24.63;18.67;;;;;;;11.71;62.12;100552.28;627680;225;32716;-76